createdAt,value
2018-04-02T00:00:57.956Z,4.41
2018-04-02T00:02:19.201Z,4.40
2018-04-02T00:03:19.822Z,4.37
2018-04-02T00:04:40.743Z,4.40
2018-04-02T00:05:41.023Z,4.38
2018-04-02T00:06:40.695Z,4.40
2018-04-02T00:07:41.293Z,4.42
2018-04-02T00:08:40.504Z,4.42
2018-04-02T00:09:41.391Z,4.42
2018-04-02T00:10:41.072Z,4.44
2018-04-02T00:11:41.082Z,4.45
2018-04-02T00:12:41.622Z,4.44
2018-04-02T00:13:42.891Z,4.44
2018-04-02T00:14:42.695Z,4.42
2018-04-02T00:15:43.998Z,4.40
2018-04-02T00:16:42.238Z,4.40
2018-04-02T00:17:43.713Z,4.35
2018-04-02T00:18:43.677Z,4.32
2018-04-02T00:19:42.160Z,4.32
2018-04-02T00:20:41.622Z,4.34
2018-04-02T00:21:41.574Z,4.37
2018-04-02T00:22:43.828Z,4.38
2018-04-02T00:23:43.815Z,4.38
2018-04-02T00:24:45.649Z,4.40
2018-04-02T00:25:41.775Z,4.42
2018-04-02T00:26:44.944Z,4.52
2018-04-02T00:27:44.428Z,4.53
2018-04-02T00:28:44.145Z,4.52
2018-04-02T00:29:43.298Z,4.52
2018-04-02T00:30:43.247Z,4.52
2018-04-02T00:31:43.712Z,4.50
2018-04-02T00:32:43.996Z,4.48
2018-04-02T00:33:43.320Z,4.49
2018-04-02T00:34:43.879Z,4.50
2018-04-02T00:36:05.729Z,4.50
2018-04-02T00:37:07.199Z,4.48
2018-04-02T00:38:05.466Z,4.45
2018-04-02T00:39:04.704Z,4.45
2018-04-02T00:40:04.259Z,4.45
2018-04-02T00:41:04.036Z,4.48
2018-04-02T00:42:08.142Z,4.44
2018-04-02T00:43:07.194Z,4.44
2018-04-02T00:44:05.105Z,4.41
2018-04-02T00:45:05.166Z,4.41
2018-04-02T00:46:06.353Z,4.41
2018-04-02T00:47:08.482Z,4.41
2018-04-02T00:48:07.123Z,4.40
2018-04-02T00:49:07.107Z,4.40
2018-04-02T00:50:05.237Z,4.41
2018-04-02T00:51:05.380Z,4.40
2018-04-02T00:52:07.438Z,4.38
2018-04-02T00:53:30.726Z,4.37
2018-04-02T00:54:29.445Z,4.34
2018-04-02T00:55:29.671Z,4.34
2018-04-02T00:56:29.497Z,4.37
2018-04-02T00:57:31.437Z,4.35
2018-04-02T00:58:30.650Z,4.38
2018-04-02T00:59:29.766Z,4.37
2018-04-02T01:00:30.364Z,4.35
2018-04-02T01:01:29.299Z,4.34
2018-04-02T01:02:28.056Z,4.34
2018-04-02T01:03:52.865Z,4.34
2018-04-02T01:04:53.837Z,4.34
2018-04-02T01:06:18.640Z,4.32
2018-04-02T01:07:21.970Z,4.31
2018-04-02T01:08:23.733Z,4.28
2018-04-02T01:09:19.420Z,4.24
2018-04-02T01:10:17.225Z,4.20
2018-04-02T01:11:17.672Z,4.19
2018-04-02T01:12:17.176Z,4.17
2018-04-02T01:13:16.057Z,4.16
2018-04-02T01:14:18.032Z,4.16
2018-04-02T01:15:18.527Z,4.16
2018-04-02T01:16:17.995Z,4.16
2018-04-02T01:17:18.876Z,4.17
2018-04-02T01:18:18.621Z,4.17
2018-04-02T01:19:18.017Z,4.14
2018-04-02T01:20:18.752Z,4.13
2018-04-02T01:21:18.198Z,4.12
2018-04-02T01:22:19.009Z,4.12
2018-04-02T01:23:19.626Z,4.12
2018-04-02T01:24:42.629Z,4.10
2018-04-02T01:25:40.802Z,4.10
2018-04-02T01:26:41.737Z,4.08
2018-04-02T01:27:41.224Z,4.08
2018-04-02T01:28:41.795Z,4.06
2018-04-02T01:29:42.948Z,4.06
2018-04-02T01:30:42.533Z,4.06
2018-04-02T01:31:42.007Z,4.04
2018-04-02T01:32:41.780Z,4.02
2018-04-02T01:33:41.583Z,4.01
2018-04-02T01:34:39.179Z,3.98
2018-04-02T01:35:41.550Z,3.96
2018-04-02T01:36:42.650Z,3.95
2018-04-02T01:37:42.311Z,3.94
2018-04-02T01:39:05.606Z,3.88
2018-04-02T01:40:03.735Z,3.87
2018-04-02T01:41:06.326Z,3.84
2018-04-02T01:42:06.085Z,3.80
2018-04-02T01:43:28.865Z,3.77
2018-04-02T01:44:29.497Z,3.74
2018-04-02T01:46:15.402Z,3.70
2018-04-02T01:47:14.254Z,3.69
2018-04-02T01:48:15.609Z,3.70
2018-04-02T01:49:16.267Z,3.73
2018-04-02T01:50:38.961Z,3.74
2018-04-02T01:51:43.078Z,3.74
2018-04-02T01:52:43.528Z,3.76
2018-04-02T01:53:42.018Z,3.77
2018-04-02T01:54:41.565Z,3.78
2018-04-02T01:55:40.692Z,3.77
2018-04-02T01:56:43.907Z,3.77
2018-04-02T01:57:41.001Z,3.77
2018-04-02T01:58:41.347Z,3.76
2018-04-02T01:59:40.477Z,3.77
2018-04-02T02:00:40.824Z,3.76
2018-04-02T02:01:41.585Z,3.77
2018-04-02T02:02:42.659Z,3.80
2018-04-02T02:03:41.496Z,3.78
2018-04-02T02:04:42.456Z,3.80
2018-04-02T02:05:42.993Z,3.84
2018-04-02T02:06:40.080Z,3.87
2018-04-02T02:07:44.118Z,3.84
2018-04-02T02:08:40.590Z,3.86
2018-04-02T02:09:41.469Z,3.86
2018-04-02T02:10:40.137Z,3.86
2018-04-02T02:11:41.579Z,3.86
2018-04-02T02:12:42.395Z,3.81
2018-04-02T02:13:41.906Z,3.81
2018-04-02T02:14:41.262Z,3.80
2018-04-02T02:15:41.040Z,3.80
2018-04-02T02:16:41.559Z,3.76
2018-04-02T02:17:39.293Z,3.76
2018-04-02T02:18:41.098Z,3.73
2018-04-02T02:19:39.319Z,3.74
2018-04-02T02:20:42.178Z,3.74
2018-04-02T02:21:41.067Z,3.74
2018-04-02T02:22:40.021Z,3.74
2018-04-02T02:23:41.846Z,3.74
2018-04-02T02:24:40.711Z,3.74
2018-04-02T02:25:41.014Z,3.76
2018-04-02T02:26:40.403Z,3.76
2018-04-02T02:27:40.630Z,3.76
2018-04-02T02:28:41.484Z,3.74
2018-04-02T02:30:04.217Z,3.74
2018-04-02T02:31:05.308Z,3.74
2018-04-02T02:32:05.497Z,3.74
2018-04-02T02:33:05.821Z,3.73
2018-04-02T02:34:05.474Z,3.70
2018-04-02T02:35:06.184Z,3.70
2018-04-02T02:36:05.292Z,3.69
2018-04-02T02:37:06.075Z,3.66
2018-04-02T02:38:06.005Z,3.65
2018-04-02T02:39:03.956Z,3.62
2018-04-02T02:40:06.107Z,3.60
2018-04-02T02:41:05.120Z,3.62
2018-04-02T02:42:26.976Z,3.60
2018-04-02T02:43:28.582Z,3.59
2018-04-02T02:44:26.677Z,3.58
2018-04-02T02:45:29.220Z,3.55
2018-04-02T02:46:27.775Z,3.53
2018-04-02T02:47:27.628Z,3.53
2018-04-02T02:48:50.947Z,3.53
2018-04-02T02:49:49.646Z,3.55
2018-04-02T02:50:51.857Z,3.53
2018-04-02T02:51:51.230Z,3.51
2018-04-02T02:53:12.375Z,3.53
2018-04-02T02:54:12.866Z,3.50
2018-04-02T02:55:11.969Z,3.48
2018-04-02T02:56:37.854Z,3.50
2018-04-02T02:57:36.829Z,3.48
2018-04-02T02:58:37.992Z,3.47
2018-04-02T02:59:36.766Z,3.48
2018-04-02T03:01:01.044Z,3.47
2018-04-02T03:02:03.508Z,3.44
2018-04-02T03:03:23.494Z,3.42
2018-04-02T03:04:24.631Z,3.41
2018-04-02T03:05:24.651Z,3.40
2018-04-02T03:06:25.398Z,3.37
2018-04-02T03:07:24.631Z,3.37
2018-04-02T03:08:24.624Z,3.32
2018-04-02T03:09:24.152Z,3.31
2018-04-02T03:10:23.870Z,3.28
2018-04-02T03:11:23.767Z,3.25
2018-04-02T03:12:24.257Z,3.18
2018-04-02T03:13:43.372Z,3.13
2018-04-02T03:14:44.230Z,3.08
2018-04-02T03:16:04.443Z,3.07
2018-04-02T03:17:05.033Z,3.03
2018-04-02T03:18:05.397Z,3.04
2018-04-02T03:19:24.986Z,3.03
2018-04-02T03:20:25.345Z,3.03
2018-04-02T03:21:26.320Z,3.05
2018-04-02T03:22:25.655Z,3.04
2018-04-02T03:23:47.156Z,3.07
2018-04-02T03:24:47.335Z,3.08
2018-04-02T03:25:47.149Z,3.05
2018-04-02T03:26:47.892Z,3.05
2018-04-02T03:27:47.549Z,3.07
2018-04-02T03:28:46.984Z,3.08
2018-04-02T03:29:47.728Z,3.13
2018-04-02T03:31:07.838Z,3.16
2018-04-02T03:32:08.418Z,3.14
2018-04-02T03:33:10.966Z,3.11
2018-04-02T03:34:08.284Z,3.14
2018-04-02T03:35:07.641Z,3.18
2018-04-02T03:36:07.756Z,3.19
2018-04-02T03:37:08.259Z,3.18
2018-04-02T03:38:28.985Z,3.16
2018-04-02T03:39:29.784Z,3.11
2018-04-02T03:40:29.335Z,3.08
2018-04-02T03:41:28.791Z,3.10
2018-04-02T03:42:29.083Z,3.14
2018-04-02T03:43:29.569Z,3.18
2018-04-02T03:44:28.819Z,3.16
2018-04-02T03:45:29.139Z,3.18
2018-04-02T03:46:50.675Z,3.22
2018-04-02T03:47:50.930Z,3.22
2018-04-02T03:48:51.718Z,3.21
2018-04-02T03:49:51.082Z,3.22
2018-04-02T03:50:51.710Z,3.23
2018-04-02T03:51:51.174Z,3.25
2018-04-02T03:52:50.918Z,3.25
2018-04-02T03:54:32.942Z,3.19
2018-04-02T03:55:33.573Z,3.19
2018-04-02T03:56:33.360Z,3.18
2018-04-02T03:57:34.177Z,3.18
2018-04-02T03:58:33.828Z,3.18
2018-04-02T03:59:33.132Z,3.16
2018-04-02T04:00:33.650Z,3.13
2018-04-02T04:01:32.848Z,3.13
2018-04-02T04:02:33.149Z,3.13
2018-04-02T04:03:33.500Z,3.13
2018-04-02T04:04:55.312Z,3.10
2018-04-02T04:05:55.699Z,3.05
2018-04-02T04:06:56.352Z,3.05
2018-04-02T04:07:56.265Z,3.07
2018-04-02T04:09:17.914Z,3.10
2018-04-02T04:10:17.766Z,3.10
2018-04-02T04:11:17.341Z,3.10
2018-04-02T04:12:16.887Z,3.08
2018-04-02T04:13:17.542Z,3.10
2018-04-02T04:14:16.958Z,3.11
2018-04-02T04:15:17.419Z,3.11
2018-04-02T04:16:16.776Z,3.10
2018-04-02T04:17:17.138Z,3.10
2018-04-02T04:18:16.940Z,3.08
2018-04-02T04:19:17.249Z,3.07
2018-04-02T04:20:17.838Z,3.04
2018-04-02T04:21:17.206Z,3.00
2018-04-02T04:22:37.251Z,3.00
2018-04-02T04:23:37.841Z,2.98
2018-04-02T04:24:59.563Z,3.01
2018-04-02T04:26:00.366Z,2.97
2018-04-02T04:26:59.997Z,3.00
2018-04-02T04:28:00.357Z,2.98
2018-04-02T04:29:00.187Z,2.98
2018-04-02T04:30:00.399Z,3.01
2018-04-02T04:31:00.035Z,3.01
2018-04-02T04:32:00.243Z,3.04
2018-04-02T04:33:00.106Z,3.05
2018-04-02T04:35:01.284Z,3.01
2018-04-02T04:36:02.167Z,3.03
2018-04-02T04:37:01.500Z,3.01
2018-04-02T04:38:22.827Z,3.00
2018-04-02T04:39:23.638Z,3.01
2018-04-02T04:40:23.096Z,2.98
2018-04-02T04:41:22.667Z,2.97
2018-04-02T04:42:43.558Z,2.95
2018-04-02T04:44:05.218Z,2.93
2018-04-02T04:45:06.021Z,2.92
2018-04-02T04:46:05.456Z,2.90
2018-04-02T04:47:06.286Z,2.92
2018-04-02T04:48:05.897Z,2.92
2018-04-02T04:49:06.527Z,2.93
2018-04-02T04:50:06.266Z,2.95
2018-04-02T04:51:05.875Z,2.95
2018-04-02T04:52:05.446Z,2.93
2018-04-02T04:53:06.422Z,2.92
2018-04-02T04:54:06.316Z,2.93
2018-04-02T04:55:05.713Z,2.93
2018-04-02T04:56:27.855Z,2.95
2018-04-02T04:57:28.098Z,2.95
2018-04-02T04:58:27.703Z,2.95
2018-04-02T04:59:49.676Z,2.97
2018-04-02T05:00:50.455Z,2.97
2018-04-02T05:01:50.060Z,3.00
2018-04-02T05:02:50.443Z,3.03
2018-04-02T05:03:50.175Z,3.03
2018-04-02T05:04:49.577Z,3.04
2018-04-02T05:05:50.067Z,3.03
2018-04-02T05:06:49.858Z,3.03
2018-04-02T05:07:50.181Z,3.05
2018-04-02T05:08:49.586Z,3.04
2018-04-02T05:09:50.324Z,3.04
2018-04-02T05:10:49.565Z,3.05
2018-04-02T05:11:50.357Z,3.05
2018-04-02T05:12:49.691Z,3.07
2018-04-02T05:13:50.415Z,3.08
2018-04-02T05:15:10.610Z,3.08
2018-04-02T05:16:11.376Z,3.10
2018-04-02T05:17:11.000Z,3.08
2018-04-02T05:18:11.254Z,3.07
2018-04-02T05:19:10.428Z,3.07
2018-04-02T05:20:11.461Z,3.10
2018-04-02T05:21:12.939Z,3.05
2018-04-02T05:22:37.064Z,3.07
2018-04-02T05:23:35.412Z,3.05
2018-04-02T05:24:34.376Z,3.04
2018-04-02T05:25:34.081Z,3.04
2018-04-02T05:26:33.677Z,3.05
2018-04-02T05:27:55.934Z,3.10
2018-04-02T05:28:56.296Z,3.08
2018-04-02T05:29:55.797Z,3.10
2018-04-02T05:30:56.271Z,3.13
2018-04-02T05:31:56.689Z,3.16
2018-04-02T05:32:56.658Z,3.19
2018-04-02T05:33:55.959Z,3.19
2018-04-02T05:34:57.222Z,3.21
2018-04-02T05:35:55.632Z,3.25
2018-04-02T05:36:56.032Z,3.26
2018-04-02T05:37:57.146Z,3.29
2018-04-02T05:38:56.567Z,3.29
2018-04-02T05:39:56.463Z,3.29
2018-04-02T05:40:55.946Z,3.29
2018-04-02T05:42:18.660Z,3.32
2018-04-02T05:43:19.380Z,3.37
2018-04-02T05:44:18.816Z,3.42
2018-04-02T05:45:19.013Z,3.50
2018-04-02T05:46:18.561Z,3.58
2018-04-02T05:47:19.089Z,3.62
2018-04-02T05:48:18.343Z,3.68
2018-04-02T05:49:18.819Z,3.70
2018-04-02T05:50:18.751Z,3.70
2018-04-02T05:51:40.268Z,3.73
2018-04-02T05:52:41.004Z,3.76
2018-04-02T05:53:40.925Z,3.76
2018-04-02T05:54:40.697Z,3.78
2018-04-02T05:55:40.669Z,3.78
2018-04-02T05:57:01.582Z,3.83
2018-04-02T05:58:01.935Z,3.88
2018-04-02T05:59:44.024Z,3.96
2018-04-02T06:00:44.792Z,3.95
2018-04-02T06:01:44.188Z,3.99
2018-04-02T06:02:45.010Z,4.02
2018-04-02T06:03:45.540Z,4.05
2018-04-02T06:04:44.131Z,4.05
2018-04-02T06:05:44.500Z,4.06
2018-04-02T06:06:43.885Z,4.08
2018-04-02T06:07:44.559Z,4.14
2018-04-02T06:08:44.078Z,4.16
2018-04-02T06:09:44.387Z,4.16
2018-04-02T06:11:05.482Z,4.19
2018-04-02T06:12:06.255Z,4.22
2018-04-02T06:13:05.992Z,4.22
2018-04-02T06:14:05.578Z,4.23
2018-04-02T06:15:27.768Z,4.23
2018-04-02T06:16:28.254Z,4.28
2018-04-02T06:17:27.890Z,4.32
2018-04-02T06:18:28.380Z,4.32
2018-04-02T06:19:27.925Z,4.37
2018-04-02T06:20:28.671Z,4.41
2018-04-02T06:21:28.084Z,4.48
2018-04-02T06:22:28.577Z,4.48
2018-04-02T06:23:28.093Z,4.49
2018-04-02T06:24:28.524Z,4.53
2018-04-02T06:25:48.708Z,4.53
2018-04-02T06:26:49.456Z,4.55
2018-04-02T06:27:49.410Z,4.58
2018-04-02T06:28:49.160Z,4.60
2018-04-02T06:29:49.120Z,4.67
2018-04-02T06:30:48.882Z,4.68
2018-04-02T06:31:49.786Z,4.70
2018-04-02T06:32:49.169Z,4.73
2018-04-02T06:34:09.660Z,4.75
2018-04-02T06:35:31.698Z,4.78
2018-04-02T06:36:53.740Z,4.84
2018-04-02T06:37:54.182Z,4.87
2018-04-02T06:38:54.805Z,4.92
2018-04-02T06:39:54.214Z,4.92
2018-04-02T06:40:53.770Z,4.94
2018-04-02T06:41:54.333Z,4.93
2018-04-02T06:42:53.672Z,4.93
2018-04-02T06:43:54.401Z,4.93
2018-04-02T06:44:53.936Z,4.97
2018-04-02T06:45:54.805Z,4.99
2018-04-02T06:46:54.446Z,5.00
2018-04-02T06:47:53.869Z,5.04
2018-04-02T06:48:54.740Z,5.11
2018-04-02T06:49:55.212Z,5.17
2018-04-02T06:50:53.845Z,5.21
2018-04-02T06:51:54.677Z,5.26
2018-04-02T06:52:54.647Z,5.29
2018-04-02T06:53:54.366Z,5.30
2018-04-02T06:54:54.201Z,5.30
2018-04-02T06:55:53.624Z,5.33
2018-04-02T06:56:54.487Z,5.35
2018-04-02T06:57:54.395Z,5.38
2018-04-02T06:58:54.059Z,5.41
2018-04-02T07:00:16.185Z,5.44
2018-04-02T07:01:16.615Z,5.46
2018-04-02T07:02:16.648Z,5.46
2018-04-02T07:03:16.454Z,5.46
2018-04-02T07:04:17.231Z,5.50
2018-04-02T07:05:17.113Z,5.53
2018-04-02T07:06:17.041Z,5.57
2018-04-02T07:07:17.002Z,5.65
2018-04-02T07:08:16.328Z,5.71
2018-04-02T07:09:16.719Z,5.73
2018-04-02T07:10:17.113Z,5.72
2018-04-02T07:11:19.905Z,5.75
2018-04-02T07:12:16.770Z,5.75
2018-04-02T07:13:16.579Z,5.76
2018-04-02T07:14:16.067Z,5.79
2018-04-02T07:15:37.499Z,5.89
2018-04-02T07:16:37.961Z,5.99
2018-04-02T07:17:38.964Z,6.09
2018-04-02T07:18:37.697Z,6.22
2018-04-02T07:19:38.478Z,6.39
2018-04-02T07:20:38.334Z,6.62
2018-04-02T07:21:37.888Z,6.99
2018-04-02T07:22:38.538Z,7.35
2018-04-02T07:23:38.032Z,7.53
2018-04-02T07:24:38.440Z,7.48
2018-04-02T07:25:37.893Z,7.58
2018-04-02T07:26:38.582Z,7.69
2018-04-02T07:27:59.564Z,8.08
2018-04-02T07:29:21.859Z,8.67
2018-04-02T07:30:22.323Z,9.06
2018-04-02T07:31:22.132Z,9.41
2018-04-02T07:32:21.919Z,9.65
2018-04-02T07:33:21.756Z,9.84
2018-04-02T07:34:22.653Z,9.94
2018-04-02T07:35:22.675Z,10.01
2018-04-02T07:36:22.756Z,10.30
2018-04-02T07:37:22.491Z,10.56
2018-04-02T07:38:22.362Z,10.92
2018-04-02T07:39:22.043Z,11.22
2018-04-02T07:40:21.696Z,11.45
2018-04-02T07:41:43.795Z,11.26
2018-04-02T07:42:44.837Z,11.25
2018-04-02T07:43:44.882Z,11.27
2018-04-02T07:44:44.481Z,11.35
2018-04-02T07:45:43.967Z,11.26
2018-04-02T07:46:43.620Z,11.27
2018-04-02T07:47:44.079Z,11.32
2018-04-02T07:48:43.770Z,11.43
2018-04-02T07:49:44.770Z,11.60
2018-04-02T07:50:44.775Z,11.72
2018-04-02T07:51:44.440Z,11.45
2018-04-02T07:52:43.907Z,11.27
2018-04-02T07:53:44.968Z,11.18
2018-04-02T07:55:04.869Z,11.08
2018-04-02T07:56:04.331Z,10.94
2018-04-02T07:57:05.375Z,10.86
2018-04-02T07:58:05.150Z,10.82
2018-04-02T07:59:04.745Z,10.69
2018-04-02T08:00:05.200Z,10.60
2018-04-02T08:01:26.018Z,10.59
2018-04-02T08:02:26.699Z,10.64
2018-04-02T08:03:47.694Z,10.72
2018-04-02T08:04:48.634Z,10.51
2018-04-02T08:05:48.364Z,10.23
2018-04-02T08:06:48.127Z,10.01
2018-04-02T08:07:48.041Z,9.94
2018-04-02T08:08:47.940Z,9.98
2018-04-02T08:09:48.836Z,9.80
2018-04-02T08:10:48.649Z,9.69
2018-04-02T08:11:49.089Z,9.77
2018-04-02T08:12:47.806Z,9.86
2018-04-02T08:13:48.413Z,9.89
2018-04-02T08:14:48.312Z,10.01
2018-04-02T08:15:48.005Z,9.95
2018-04-02T08:16:47.607Z,9.86
2018-04-02T08:17:48.088Z,9.83
2018-04-02T08:18:47.914Z,9.86
2018-04-02T08:19:48.811Z,9.91
2018-04-02T08:20:48.487Z,10.10
2018-04-02T08:21:48.420Z,10.19
2018-04-02T08:23:08.554Z,10.05
2018-04-02T08:24:30.766Z,10.10
2018-04-02T08:25:31.963Z,10.16
2018-04-02T08:26:31.363Z,10.07
2018-04-02T08:27:30.727Z,9.87
2018-04-02T08:28:31.714Z,9.76
2018-04-02T08:29:31.737Z,9.72
2018-04-02T08:30:31.818Z,9.58
2018-04-02T08:31:31.414Z,9.58
2018-04-02T08:32:51.737Z,9.55
2018-04-02T08:33:52.351Z,9.65
2018-04-02T08:34:52.311Z,9.69
2018-04-02T08:35:52.305Z,9.73
2018-04-02T08:36:52.256Z,9.73
2018-04-02T08:37:51.801Z,9.82
2018-04-02T08:38:52.829Z,9.83
2018-04-02T08:39:52.679Z,9.72
2018-04-02T08:40:52.575Z,9.74
2018-04-02T08:41:52.444Z,9.76
2018-04-02T08:43:33.035Z,9.73
2018-04-02T08:44:33.943Z,9.76
2018-04-02T08:45:33.430Z,9.84
2018-04-02T08:46:33.490Z,9.87
2018-04-02T08:47:33.479Z,9.89
2018-04-02T08:48:33.375Z,9.97
2018-04-02T08:49:54.325Z,10.17
2018-04-02T08:50:54.880Z,10.41
2018-04-02T08:51:54.701Z,10.67
2018-04-02T08:52:55.628Z,10.90
2018-04-02T08:54:16.499Z,10.96
2018-04-02T08:55:38.617Z,11.11
2018-04-02T08:56:39.565Z,11.23
2018-04-02T08:57:39.095Z,11.23
2018-04-02T08:58:38.898Z,11.25
2018-04-02T08:59:38.829Z,11.25
2018-04-02T09:00:38.565Z,11.26
2018-04-02T09:01:39.577Z,11.23
2018-04-02T09:02:39.237Z,11.22
2018-04-02T09:03:39.246Z,11.29
2018-04-02T09:04:38.862Z,11.43
2018-04-02T09:05:39.013Z,11.59
2018-04-02T09:06:39.188Z,11.70
2018-04-02T09:07:59.420Z,11.94
2018-04-02T09:09:42.232Z,12.07
2018-04-02T09:10:42.653Z,12.21
2018-04-02T09:11:42.662Z,12.31
2018-04-02T09:12:42.660Z,12.54
2018-04-02T09:13:42.286Z,12.80
2018-04-02T09:14:42.387Z,12.86
2018-04-02T09:15:41.777Z,13.08
2018-04-02T09:16:42.904Z,13.01
2018-04-02T09:17:42.619Z,12.85
2018-04-02T09:18:42.601Z,12.80
2018-04-02T09:19:42.637Z,12.80
2018-04-02T09:20:42.046Z,12.94
2018-04-02T09:22:03.582Z,12.61
2018-04-02T09:23:04.469Z,12.45
2018-04-02T09:24:04.596Z,12.36
2018-04-02T09:25:26.138Z,12.22
2018-04-02T09:26:26.008Z,12.15
2018-04-02T09:27:26.180Z,12.17
2018-04-02T09:28:26.382Z,12.06
2018-04-02T09:29:25.986Z,12.07
2018-04-02T09:30:25.654Z,12.06
2018-04-02T09:31:26.107Z,12.04
2018-04-02T09:32:26.185Z,12.04
2018-04-02T09:33:26.229Z,11.86
2018-04-02T09:34:25.949Z,11.75
2018-04-02T09:35:25.745Z,11.75
2018-04-02T09:36:26.527Z,11.75
2018-04-02T09:37:26.111Z,11.86
2018-04-02T09:38:25.753Z,11.66
2018-04-02T09:39:46.779Z,11.44
2018-04-02T09:40:47.838Z,11.44
2018-04-02T09:41:46.569Z,11.43
2018-04-02T09:42:47.675Z,11.44
2018-04-02T09:43:47.440Z,11.43
2018-04-02T09:44:47.472Z,11.47
2018-04-02T09:45:47.182Z,11.54
2018-04-02T09:46:47.109Z,11.59
2018-04-02T09:47:46.691Z,11.63
2018-04-02T09:48:46.785Z,11.57
2018-04-02T09:49:47.296Z,11.57
2018-04-02T09:50:47.225Z,11.52
2018-04-02T09:51:46.791Z,11.55
2018-04-02T09:52:46.474Z,11.66
2018-04-02T09:53:47.125Z,11.80
2018-04-02T09:54:46.855Z,11.83
2018-04-02T09:56:07.453Z,11.90
2018-04-02T09:57:29.943Z,12.02
2018-04-02T09:58:30.118Z,11.97
2018-04-02T09:59:29.884Z,11.99
2018-04-02T10:00:29.995Z,12.20
2018-04-02T10:01:50.920Z,12.46
2018-04-02T10:03:33.465Z,12.57
2018-04-02T10:04:56.225Z,12.75
2018-04-02T10:05:56.062Z,12.86
2018-04-02T10:06:56.920Z,13.09
2018-04-02T10:07:56.940Z,13.23
2018-04-02T10:08:56.790Z,13.30
2018-04-02T10:09:56.670Z,13.35
2018-04-02T10:10:56.715Z,13.44
2018-04-02T10:11:56.787Z,13.46
2018-04-02T10:12:56.802Z,13.37
2018-04-02T10:13:56.703Z,13.15
2018-04-02T10:14:56.223Z,13.13
2018-04-02T10:16:38.413Z,13.19
2018-04-02T10:17:38.952Z,13.28
2018-04-02T10:18:59.887Z,13.20
2018-04-02T10:19:59.969Z,13.15
2018-04-02T10:20:59.652Z,13.03
2018-04-02T10:22:00.101Z,13.05
2018-04-02T10:22:59.981Z,12.67
2018-04-02T10:24:00.144Z,12.55
2018-04-02T10:24:59.953Z,12.49
2018-04-02T10:26:20.851Z,12.42
2018-04-02T10:27:21.681Z,12.37
2018-04-02T10:28:21.516Z,12.50
2018-04-02T10:29:42.861Z,12.73
2018-04-02T10:30:43.045Z,13.09
2018-04-02T10:31:43.156Z,13.33
2018-04-02T10:32:42.819Z,13.47
2018-04-02T10:33:42.608Z,13.35
2018-04-02T10:34:43.805Z,13.41
2018-04-02T10:35:45.458Z,13.42
2018-04-02T10:36:43.565Z,13.33
2018-04-02T10:37:43.811Z,13.35
2018-04-02T10:38:44.938Z,13.27
2018-04-02T10:39:42.706Z,13.23
2018-04-02T10:40:44.914Z,13.35
2018-04-02T10:42:24.757Z,13.25
2018-04-02T10:43:24.681Z,13.22
2018-04-02T10:44:24.921Z,13.25
2018-04-02T10:45:46.598Z,13.15
2018-04-02T10:46:47.632Z,13.23
2018-04-02T10:47:47.474Z,13.25
2018-04-02T10:48:47.463Z,13.12
2018-04-02T10:49:47.190Z,13.25
2018-04-02T10:50:48.111Z,13.23
2018-04-02T10:52:07.755Z,13.25
2018-04-02T10:53:08.088Z,13.42
2018-04-02T10:54:08.290Z,13.44
2018-04-02T10:55:08.111Z,13.13
2018-04-02T10:56:07.791Z,13.18
2018-04-02T10:57:30.234Z,13.09
2018-04-02T10:58:31.614Z,13.03
2018-04-02T10:59:30.151Z,12.80
2018-04-02T11:00:31.790Z,12.82
2018-04-02T11:01:52.254Z,12.79
2018-04-02T11:02:52.467Z,12.85
2018-04-02T11:03:58.138Z,12.73
2018-04-02T11:04:52.305Z,12.75
2018-04-02T11:05:52.505Z,12.70
2018-04-02T11:06:52.391Z,12.86
2018-04-02T11:07:52.442Z,13.03
2018-04-02T11:08:52.207Z,13.04
2018-04-02T11:09:51.937Z,13.04
2018-04-02T11:10:52.900Z,13.16
2018-04-02T11:11:52.990Z,13.15
2018-04-02T11:12:52.222Z,13.00
2018-04-02T11:13:52.429Z,12.98
2018-04-02T11:14:52.216Z,12.76
2018-04-02T11:15:52.002Z,12.58
2018-04-02T11:16:51.615Z,12.55
2018-04-02T11:17:52.574Z,12.47
2018-04-02T11:18:52.669Z,12.60
2018-04-02T11:19:52.792Z,12.49
2018-04-02T11:20:52.755Z,12.54
2018-04-02T11:21:52.366Z,12.68
2018-04-02T11:22:52.210Z,12.85
2018-04-02T11:23:52.420Z,13.09
2018-04-02T11:24:52.897Z,13.47
2018-04-02T11:25:53.063Z,13.83
2018-04-02T11:26:51.746Z,13.89
2018-04-02T11:27:52.709Z,13.83
2018-04-02T11:28:52.540Z,13.67
2018-04-02T11:29:52.658Z,13.63
2018-04-02T11:30:52.632Z,13.68
2018-04-02T11:31:52.671Z,13.59
2018-04-02T11:32:52.767Z,13.50
2018-04-02T11:33:52.566Z,13.39
2018-04-02T11:34:52.046Z,13.42
2018-04-02T11:35:51.629Z,13.38
2018-04-02T11:37:13.930Z,13.54
2018-04-02T11:38:14.019Z,13.77
2018-04-02T11:39:35.276Z,14.10
2018-04-02T11:40:35.771Z,14.17
2018-04-02T11:41:35.692Z,14.08
2018-04-02T11:42:57.654Z,13.72
2018-04-02T11:43:57.538Z,13.52
2018-04-02T11:44:57.173Z,13.63
2018-04-02T11:45:57.199Z,13.56
2018-04-02T11:46:57.363Z,13.63
2018-04-02T11:47:57.724Z,13.70
2018-04-02T11:48:57.650Z,13.74
2018-04-02T11:49:57.796Z,13.67
2018-04-02T11:50:58.212Z,13.47
2018-04-02T11:51:56.947Z,13.22
2018-04-02T11:53:18.489Z,13.09
2018-04-02T11:54:19.661Z,13.13
2018-04-02T11:55:20.805Z,13.20
2018-04-02T11:56:19.671Z,13.19
2018-04-02T11:57:18.596Z,13.20
2018-04-02T11:58:19.498Z,13.09
2018-04-02T11:59:19.406Z,13.11
2018-04-02T12:00:19.160Z,12.94
2018-04-02T12:01:19.342Z,12.94
2018-04-02T12:02:18.953Z,13.08
2018-04-02T12:03:19.018Z,13.18
2018-04-02T12:04:39.770Z,13.25
2018-04-02T12:05:40.650Z,13.19
2018-04-02T12:06:40.940Z,13.13
2018-04-02T12:08:01.027Z,13.04
2018-04-02T12:09:00.666Z,12.98
2018-04-02T12:10:01.310Z,12.91
2018-04-02T12:11:01.650Z,12.90
2018-04-02T12:12:01.686Z,12.82
2018-04-02T12:13:01.442Z,12.75
2018-04-02T12:14:01.318Z,12.73
2018-04-02T12:15:22.566Z,12.64
2018-04-02T12:16:23.117Z,12.50
2018-04-02T12:17:23.179Z,12.46
2018-04-02T12:18:22.908Z,12.47
2018-04-02T12:19:22.881Z,12.55
2018-04-02T12:21:04.622Z,12.55
2018-04-02T12:22:04.691Z,12.47
2018-04-02T12:23:04.323Z,12.39
2018-04-02T12:24:26.856Z,12.36
2018-04-02T12:25:27.965Z,12.31
2018-04-02T12:26:49.413Z,12.24
2018-04-02T12:27:49.685Z,12.25
2018-04-02T12:28:49.434Z,12.18
2018-04-02T12:29:49.777Z,12.15
2018-04-02T12:30:49.753Z,12.00
2018-04-02T12:31:49.523Z,11.84
2018-04-02T12:32:49.608Z,11.75
2018-04-02T12:33:50.149Z,11.68
2018-04-02T12:34:49.885Z,11.66
2018-04-02T12:35:49.871Z,11.65
2018-04-02T12:37:11.096Z,11.51
2018-04-02T12:38:11.982Z,11.43
2018-04-02T12:39:11.667Z,11.36
2018-04-02T12:40:11.544Z,11.29
2018-04-02T12:41:12.204Z,11.23
2018-04-02T12:42:33.198Z,11.23
2018-04-02T12:43:33.494Z,11.25
2018-04-02T12:44:54.853Z,11.32
2018-04-02T12:45:55.232Z,11.30
2018-04-02T12:47:37.813Z,11.32
2018-04-02T12:48:37.765Z,11.36
2018-04-02T12:49:37.692Z,11.37
2018-04-02T12:50:37.591Z,11.33
2018-04-02T12:51:37.671Z,11.27
2018-04-02T12:52:38.181Z,11.22
2018-04-02T12:53:38.761Z,11.19
2018-04-02T12:54:37.797Z,11.18
2018-04-02T12:55:38.041Z,11.19
2018-04-02T12:56:59.999Z,11.27
2018-04-02T12:58:01.109Z,11.35
2018-04-02T12:59:01.763Z,11.43
2018-04-02T13:00:00.926Z,11.37
2018-04-02T13:01:01.272Z,11.36
2018-04-02T13:02:00.319Z,11.30
2018-04-02T13:03:00.160Z,11.29
2018-04-02T13:04:00.237Z,11.33
2018-04-02T13:06:02.823Z,11.37
2018-04-02T13:07:03.797Z,11.37
2018-04-02T13:08:04.242Z,11.47
2018-04-02T13:09:03.273Z,11.52
2018-04-02T13:10:03.189Z,11.51
2018-04-02T13:11:03.432Z,11.51
2018-04-02T13:12:03.594Z,11.52
2018-04-02T13:13:03.534Z,11.60
2018-04-02T13:14:03.894Z,11.65
2018-04-02T13:15:26.362Z,11.63
2018-04-02T13:16:26.458Z,11.66
2018-04-02T13:17:26.266Z,11.63
2018-04-02T13:18:47.988Z,11.60
2018-04-02T13:19:49.004Z,11.63
2018-04-02T13:20:48.181Z,11.65
2018-04-02T13:21:48.181Z,11.68
2018-04-02T13:23:31.166Z,11.70
2018-04-02T13:24:31.504Z,11.75
2018-04-02T13:25:31.525Z,11.78
2018-04-02T13:26:31.744Z,11.81
2018-04-02T13:27:31.696Z,11.75
2018-04-02T13:28:30.723Z,11.72
2018-04-02T13:29:53.650Z,11.68
2018-04-02T13:30:53.826Z,11.68
2018-04-02T13:32:15.070Z,11.77
2018-04-02T13:33:15.994Z,11.78
2018-04-02T13:34:16.286Z,11.81
2018-04-02T13:35:36.834Z,11.87
2018-04-02T13:36:37.894Z,11.94
2018-04-02T13:37:38.394Z,12.03
2018-04-02T13:38:37.313Z,12.15
2018-04-02T13:39:37.138Z,12.25
2018-04-02T13:40:37.189Z,12.35
2018-04-02T13:41:37.434Z,12.43
2018-04-02T13:42:37.611Z,12.49
2018-04-02T13:43:37.871Z,12.58
2018-04-02T13:44:37.885Z,12.61
2018-04-02T13:45:37.644Z,12.60
2018-04-02T13:46:58.901Z,12.60
2018-04-02T13:48:00.301Z,12.61
2018-04-02T13:48:59.304Z,12.65
2018-04-02T13:49:59.507Z,12.60
2018-04-02T13:50:59.817Z,12.62
2018-04-02T13:52:00.109Z,12.73